Time;durP1;ratioP1;P1;durP2;ratioP2;P2;SDS_P1;SDS_P2;PMS_P1;PMS_P2;Temp;Humidity;BMP_temperature;BMP_pressure;BME280_temperature;BME280_humidity;BME280_pressure;Samples;Min_cycle;Max_cycle;Signal;HPM_P1;HPM_P2
2022/10/14 00:02:06;;;;;;;343.77;31.27;;;13.00;99.90;;;;;;5097463;27;20594;-83
2022/10/14 00:04:32;;;;;;;32.47;20.15;;;11.50;99.90;;;;;;5130919;27;20050;-78
2022/10/14 00:06:57;;;;;;;346.83;34.40;;;11.40;99.90;;;;;;5105183;27;20039;-79
2022/10/14 00:09:23;;;;;;;286.50;29.85;;;13.00;99.90;;;;;;5130367;27;20034;-81
2022/10/14 00:11:49;;;;;;;160.90;25.90;;;11.40;99.90;;;;;;5132750;27;20043;-82
2022/10/14 00:14:18;;;;;;;171.52;26.83;;;12.80;99.90;;;;;;5101238;27;20428;-80
2022/10/14 00:16:48;;;;;;;96.30;27.45;;;11.40;99.90;;;;;;5131119;27;20072;-84
2022/10/14 00:19:14;;;;;;;102.50;29.08;;;11.30;99.90;;;;;;5121770;27;20048;-82
2022/10/14 00:21:43;;;;;;;49.78;23.00;;;13.00;99.90;;;;;;5115147;27;20044;-84
2022/10/14 00:24:11;;;;;;;125.95;27.02;;;11.40;99.90;;;;;;5127787;27;20070;-81
2022/10/14 00:26:38;;;;;;;70.82;23.75;;;11.40;99.90;;;;;;5101348;28;20059;-82
2022/10/14 00:29:10;;;;;;;111.03;24.60;;;11.50;99.90;;;;;;5109326;28;20185;-81
2022/10/14 00:31:36;;;;;;;103.60;22.75;;;11.40;99.90;;;;;;5123441;27;20031;-83
2022/10/14 00:34:01;;;;;;;161.68;26.08;;;11.40;99.90;;;;;;5113757;27;20039;-85
2022/10/14 00:36:27;;;;;;;82.63;20.02;;;12.70;99.90;;;;;;5112585;27;20071;-82
2022/10/14 00:38:53;;;;;;;66.05;18.67;;;11.40;99.90;;;;;;5096193;28;20474;-79
2022/10/14 00:41:26;;;;;;;65.15;19.55;;;11.40;99.90;;;;;;5112818;27;20035;-78
2022/10/14 00:43:54;;;;;;;84.32;18.30;;;13.10;99.90;;;;;;5118897;27;20044;-79
2022/10/14 00:46:21;;;;;;;23.88;16.92;;;11.30;99.90;;;;;;5107490;27;20042;-81
2022/10/14 00:48:47;;;;;;;96.00;16.75;;;11.30;99.90;;;;;;5100303;28;20439;-79
2022/10/14 00:51:13;;;;;;;180.73;26.38;;;11.30;99.90;;;;;;5103318;27;20154;-81
2022/10/14 00:53:42;;;;;;;22.15;16.08;;;11.30;99.90;;;;;;5123889;27;20533;-81
2022/10/14 00:56:10;;;;;;;113.13;18.48;;;11.20;99.90;;;;;;5119355;27;20142;-83
2022/10/14 00:58:37;;;;;;;110.47;17.27;;;11.20;99.90;;;;;;5092702;28;20388;-84
2022/10/14 01:01:03;;;;;;;15.27;13.65;;;11.20;99.90;;;;;;5125717;27;20035;-84
2022/10/14 01:03:28;;;;;;;35.17;15.27;;;12.80;99.90;;;;;;5091894;28;20130;-78
2022/10/14 01:06:19;;;;;;;51.60;14.57;;;13.00;99.90;;;;;;5124388;27;20130;-80
2022/10/14 01:08:47;;;;;;;22.55;13.90;;;11.10;99.90;;;;;;5117513;27;20559;-77
2022/10/14 01:11:35;;;;;;;213.07;24.88;;;11.30;99.90;;;;;;5118095;27;20626;-78
2022/10/14 01:14:38;;;;;;;154.32;18.13;;;11.10;99.90;;;;;;5125938;27;20482;-80
2022/10/14 01:17:23;;;;;;;136.50;17.15;;;11.20;99.90;;;;;;5115796;27;20055;-80
2022/10/14 01:19:51;;;;;;;13.35;12.00;;;12.60;99.90;;;;;;5104076;28;20506;-78
2022/10/14 01:22:51;;;;;;;46.28;15.02;;;11.80;99.90;;;;;;5125879;27;20048;-78
2022/10/14 01:25:56;;;;;;;235.90;19.00;;;11.10;99.90;;;;;;5108515;27;20093;-77
2022/10/14 01:28:59;;;;;;;47.75;14.80;;;11.10;99.90;;;;;;5084502;27;20039;-80
2022/10/14 01:31:30;;;;;;;12.77;11.52;;;11.10;99.90;;;;;;5101251;27;20039;-78
2022/10/14 01:33:59;;;;;;;28.63;13.07;;;11.10;99.90;;;;;;5112891;27;20123;-79
2022/10/14 01:36:36;;;;;;;153.07;18.27;;;11.10;99.90;;;;;;5108702;28;20445;-78
2022/10/14 01:39:01;;;;;;;85.07;14.10;;;11.10;99.90;;;;;;5119937;27;20054;-78
2022/10/14 01:41:45;;;;;;;68.05;13.15;;;12.70;99.90;;;;;;5110000;28;20044;-79
2022/10/14 01:44:13;;;;;;;26.55;12.05;;;12.80;99.90;;;;;;5093497;27;20088;-79
2022/10/14 01:46:45;;;;;;;17.48;11.40;;;11.10;99.90;;;;;;5097252;28;20086;-78
2022/10/14 01:49:21;;;;;;;55.15;12.70;;;11.00;99.90;;;;;;5108328;28;20505;-79
2022/10/14 01:51:53;;;;;;;23.13;10.15;;;11.10;99.90;;;;;;5098955;28;20062;-79
2022/10/14 01:54:29;;;;;;;11.77;10.23;;;11.10;99.90;;;;;;5100158;28;20081;-79
2022/10/14 01:57:00;;;;;;;10.90;9.85;;;11.10;99.90;;;;;;5119374;27;20104;-77
2022/10/14 01:59:28;;;;;;;22.30;10.23;;;9.80;99.90;;;;;;5099663;28;20386;-80
2022/10/14 02:01:53;;;;;;;15.73;10.20;;;11.80;99.90;;;;;;5116693;27;20079;-78
2022/10/14 02:04:21;;;;;;;29.88;10.77;;;10.20;99.90;;;;;;5121937;27;20038;-77
2022/10/14 02:06:56;;;;;;;12.20;8.95;;;11.00;99.90;;;;;;5093875;28;20070;-78
2022/10/14 02:09:31;;;;;;;79.85;10.88;;;11.70;99.90;;;;;;5098351;27;20027;-77
2022/10/14 02:12:27;;;;;;;59.92;9.88;;;11.00;99.90;;;;;;5091826;28;20081;-79
2022/10/14 02:15:31;;;;;;;187.02;12.32;;;11.00;99.90;;;;;;5116205;27;20047;-80
2022/10/14 02:18:16;;;;;;;9.27;8.48;;;10.90;99.90;;;;;;5071234;28;20114;-79
2022/10/14 02:21:00;;;;;;;;;;;12.20;99.90;;;;;;5109703;27;20047;-81
2022/10/14 02:23:34;;;;;;;8.65;7.95;;;10.80;99.90;;;;;;5120215;27;20005;-80
2022/10/14 02:26:01;;;;;;;9.43;8.40;;;10.80;99.90;;;;;;5108667;27;20111;-81
2022/10/14 02:28:29;;;;;;;9.70;8.88;;;10.90;99.90;;;;;;5122521;27;20091;-81
2022/10/14 02:31:00;;;;;;;28.20;9.02;;;10.70;99.90;;;;;;5105871;27;20047;-82
2022/10/14 02:33:32;;;;;;;102.95;13.60;;;10.90;99.90;;;;;;5130353;27;20050;-83
2022/10/14 02:36:00;;;;;;;58.08;10.95;;;12.00;99.90;;;;;;5097868;27;20053;-82
2022/10/14 02:38:26;;;;;;;12.77;10.02;;;10.90;99.90;;;;;;5114079;27;20042;-84
2022/10/14 02:40:52;;;;;;;35.78;10.00;;;9.60;99.90;;;;;;5098733;27;20039;-77
2022/10/14 02:43:18;;;;;;;42.65;10.13;;;10.70;99.90;;;;;;5122019;27;20043;-78
2022/10/14 02:45:44;;;;;;;40.38;8.82;;;11.30;99.90;;;;;;5131726;27;20050;-77
2022/10/14 02:48:10;;;;;;;24.13;9.07;;;10.80;99.90;;;;;;5110462;27;20385;-78
2022/10/14 02:50:36;;;;;;;34.45;8.80;;;12.50;99.90;;;;;;5131451;27;20047;-78
2022/10/14 02:53:02;;;;;;;74.43;10.15;;;10.70;99.90;;;;;;5127293;27;20505;-78
2022/10/14 02:55:28;;;;;;;25.48;9.57;;;10.70;99.90;;;;;;5118543;27;20043;-78
2022/10/14 02:57:54;;;;;;;9.65;8.85;;;10.80;99.90;;;;;;5118992;27;20398;-78
2022/10/14 03:00:20;;;;;;;12.77;9.15;;;11.00;99.90;;;;;;5148622;27;20035;-78
2022/10/14 03:02:46;;;;;;;22.63;10.55;;;10.60;99.90;;;;;;5125281;27;20054;-78
2022/10/14 03:05:11;;;;;;;15.73;9.60;;;10.70;99.90;;;;;;5119416;27;20050;-79
2022/10/14 03:07:37;;;;;;;15.80;9.55;;;10.60;99.90;;;;;;5131543;27;20041;-78
2022/10/14 03:10:04;;;;;;;11.60;8.80;;;11.90;99.90;;;;;;5126195;27;20049;-78
2022/10/14 03:12:29;;;;;;;21.33;8.70;;;10.70;99.90;;;;;;5122086;27;20046;-79
2022/10/14 03:14:55;;;;;;;17.80;9.05;;;10.60;99.90;;;;;;5102246;28;20109;-79
2022/10/14 03:17:21;;;;;;;10.48;9.57;;;10.70;99.90;;;;;;5100579;27;20458;-78
2022/10/14 03:19:46;;;;;;;9.38;8.32;;;11.80;99.90;;;;;;5119144;28;20130;-79
2022/10/14 03:22:12;;;;;;;12.35;9.05;;;10.70;99.90;;;;;;5103425;27;20601;-79
2022/10/14 03:24:37;;;;;;;150.48;15.48;;;10.60;99.90;;;;;;5122738;27;20478;-78
2022/10/14 03:27:03;;;;;;;13.32;11.23;;;10.50;99.90;;;;;;5122838;27;20058;-79
2022/10/14 03:29:29;;;;;;;13.27;10.25;;;12.10;99.90;;;;;;5140141;27;20039;-78
2022/10/14 03:31:54;;;;;;;41.20;13.93;;;12.30;99.90;;;;;;5098201;28;20046;-79
2022/10/14 03:34:20;;;;;;;93.47;15.18;;;10.50;99.90;;;;;;5113340;27;20035;-79
2022/10/14 03:36:46;;;;;;;13.15;11.27;;;10.60;99.90;;;;;;5127164;27;20043;-79
2022/10/14 03:39:12;;;;;;;80.93;14.98;;;10.60;99.90;;;;;;5100197;27;20482;-79
2022/10/14 03:41:37;;;;;;;94.10;16.98;;;10.50;99.90;;;;;;5104899;27;20039;-77
2022/10/14 03:44:03;;;;;;;15.40;11.27;;;10.50;99.90;;;;;;5127801;27;20039;-78
2022/10/14 03:46:30;;;;;;;17.30;11.13;;;10.50;99.90;;;;;;5117595;27;20087;-78
2022/10/14 03:48:55;;;;;;;29.95;10.18;;;10.50;99.90;;;;;;5102282;27;20058;-78
2022/10/14 03:51:21;;;;;;;21.67;8.68;;;12.20;99.90;;;;;;5132687;27;20085;-77
2022/10/14 03:53:47;;;;;;;27.35;10.25;;;11.40;99.90;;;;;;5120519;27;20505;-77
2022/10/14 03:56:13;;;;;;;22.55;9.60;;;12.30;99.90;;;;;;5115253;27;20087;-78
2022/10/14 03:58:38;;;;;;;71.05;11.18;;;12.30;99.90;;;;;;5147937;27;20549;-79
2022/10/14 04:01:07;;;;;;;84.50;12.07;;;11.70;99.90;;;;;;5126330;27;20039;-78
2022/10/14 04:03:33;;;;;;;17.40;11.35;;;11.50;99.90;;;;;;5126463;27;20098;-78
2022/10/14 04:05:59;;;;;;;12.38;9.80;;;10.30;99.90;;;;;;5148773;27;20034;-78
2022/10/14 04:08:24;;;;;;;44.25;11.40;;;10.30;99.90;;;;;;5133392;27;20078;-77
2022/10/14 04:10:54;;;;;;;97.32;12.23;;;10.30;99.90;;;;;;5130268;27;20158;-78
2022/10/14 04:13:20;;;;;;;45.63;10.60;;;12.00;99.90;;;;;;5132186;27;20402;-78
2022/10/14 04:15:46;;;;;;;10.32;9.32;;;12.00;99.90;;;;;;5150192;27;20054;-77
2022/10/14 04:18:12;;;;;;;28.67;9.70;;;10.30;99.90;;;;;;5100251;27;20043;-77
2022/10/14 04:20:38;;;;;;;18.48;8.45;;;10.30;99.90;;;;;;5120911;27;20501;-78
2022/10/14 04:23:03;;;;;;;9.68;8.30;;;11.90;99.90;;;;;;5113966;27;20043;-79
2022/10/14 04:25:29;;;;;;;40.03;9.02;;;10.20;99.90;;;;;;5147586;27;20116;-77
2022/10/14 04:27:54;;;;;;;22.10;9.20;;;11.70;99.90;;;;;;5121123;27;20402;-79
2022/10/14 04:30:20;;;;;;;43.28;9.15;;;11.70;99.90;;;;;;5113575;27;20039;-81
2022/10/14 04:32:46;;;;;;;41.75;9.98;;;11.10;99.90;;;;;;5140735;27;20043;-78
2022/10/14 04:35:12;;;;;;;25.30;9.57;;;10.20;99.90;;;;;;5127816;27;20039;-85
2022/10/14 04:37:37;;;;;;;10.95;9.02;;;12.20;99.90;;;;;;5125918;27;20356;-82
2022/10/14 04:40:04;;;;;;;14.70;9.32;;;10.20;99.90;;;;;;5122850;27;20139;-79
2022/10/14 04:42:30;;;;;;;27.33;10.50;;;10.20;99.90;;;;;;5111501;27;20057;-82
2022/10/14 04:44:56;;;;;;;12.10;10.13;;;10.20;99.90;;;;;;5110607;27;20112;-78
2022/10/14 04:47:22;;;;;;;36.13;10.40;;;10.20;99.90;;;;;;5131895;27;20067;-79
2022/10/14 04:49:50;;;;;;;18.17;9.95;;;10.20;99.90;;;;;;5133695;27;20129;-78
2022/10/14 04:52:16;;;;;;;14.75;10.20;;;10.20;99.90;;;;;;5133222;27;20035;-80
2022/10/14 04:54:44;;;;;;;22.17;10.48;;;11.30;99.90;;;;;;5123859;27;20042;-80
2022/10/14 04:57:11;;;;;;;23.48;9.82;;;10.70;99.90;;;;;;5130195;27;20493;-82
2022/10/14 04:59:37;;;;;;;16.58;9.73;;;10.30;99.90;;;;;;5125038;27;20070;-80
2022/10/14 05:02:02;;;;;;;27.08;10.48;;;10.20;99.90;;;;;;5107703;27;20124;-81
2022/10/14 05:04:31;;;;;;;17.15;10.20;;;10.20;99.90;;;;;;5116408;27;20047;-79
2022/10/14 05:06:57;;;;;;;38.22;10.60;;;10.20;99.90;;;;;;5108727;27;20453;-83
2022/10/14 05:09:23;;;;;;;12.40;9.90;;;11.00;99.90;;;;;;5149300;27;20083;-79
2022/10/14 05:11:52;;;;;;;20.45;10.60;;;10.10;99.90;;;;;;5131000;27;20035;-80
2022/10/14 05:14:21;;;;;;;34.00;11.57;;;10.20;99.90;;;;;;5145533;27;20050;-80
2022/10/14 05:16:50;;;;;;;14.85;9.80;;;10.20;99.90;;;;;;5126016;27;20405;-81
2022/10/14 05:19:16;;;;;;;13.15;9.80;;;8.90;99.90;;;;;;5113087;27;20094;-83
2022/10/14 05:21:41;;;;;;;24.30;10.43;;;10.20;99.90;;;;;;5120229;27;20046;-84
2022/10/14 05:24:07;;;;;;;19.27;9.45;;;10.20;99.90;;;;;;5118581;27;20436;-82
2022/10/14 05:26:36;;;;;;;22.70;10.30;;;10.20;99.90;;;;;;5122126;27;20053;-79
2022/10/14 05:29:03;;;;;;;32.13;10.07;;;10.20;99.90;;;;;;5115504;27;20031;-80
2022/10/14 05:31:29;;;;;;;17.77;9.85;;;10.70;99.90;;;;;;5111476;27;20565;-78
2022/10/14 05:33:58;;;;;;;16.95;8.18;;;10.10;99.90;;;;;;5129629;27;20035;-78
2022/10/14 05:36:23;;;;;;;16.02;9.55;;;11.20;99.90;;;;;;5123574;27;20031;-78
2022/10/14 05:38:49;;;;;;;9.77;8.65;;;10.20;99.90;;;;;;5116793;27;20399;-78
2022/10/14 05:41:15;;;;;;;12.13;9.27;;;10.20;99.90;;;;;;5125134;27;20433;-78
2022/10/14 05:43:40;;;;;;;23.90;11.07;;;11.10;99.90;;;;;;5106710;28;20036;-78
2022/10/14 05:46:06;;;;;;;13.10;10.02;;;11.10;99.90;;;;;;5124710;27;20067;-78
2022/10/14 05:48:32;;;;;;;14.60;10.25;;;10.30;99.90;;;;;;5127920;27;20073;-81
2022/10/14 05:51:01;;;;;;;18.17;10.65;;;10.50;99.90;;;;;;5103099;27;20038;-79
2022/10/14 05:53:27;;;;;;;16.33;11.88;;;11.80;99.90;;;;;;5130142;27;20100;-78
2022/10/14 05:56:00;;;;;;;15.38;10.63;;;12.10;99.90;;;;;;5128790;27;20076;-77
2022/10/14 05:58:26;;;;;;;17.35;12.13;;;10.30;99.90;;;;;;5123050;27;20031;-78
2022/10/14 06:00:51;;;;;;;19.65;13.05;;;12.10;99.90;;;;;;5123747;27;20502;-80
2022/10/14 06:03:17;;;;;;;18.65;13.00;;;10.30;99.90;;;;;;5099588;27;20533;-79
2022/10/14 06:05:44;;;;;;;24.70;15.35;;;12.40;99.90;;;;;;5099264;28;20051;-81
2022/10/14 06:08:10;;;;;;;28.27;14.93;;;10.40;99.90;;;;;;5125484;27;20030;-78
2022/10/14 06:10:35;;;;;;;21.05;14.90;;;10.40;99.90;;;;;;5101202;27;20047;-80
2022/10/14 06:13:01;;;;;;;22.17;14.95;;;11.60;99.90;;;;;;5104824;28;20032;-78
2022/10/14 06:15:27;;;;;;;25.27;15.68;;;10.40;99.90;;;;;;5099862;27;20490;-79
2022/10/14 06:17:53;;;;;;;20.38;13.68;;;11.40;99.90;;;;;;5125965;27;20162;-79
2022/10/14 06:20:18;;;;;;;31.90;15.52;;;11.40;99.90;;;;;;5127458;27;20044;-78
2022/10/14 06:22:44;;;;;;;32.92;15.00;;;10.30;99.90;;;;;;5130157;27;20384;-82
2022/10/14 06:25:10;;;;;;;31.48;16.05;;;10.40;99.90;;;;;;5100277;28;20031;-80
2022/10/14 06:27:36;;;;;;;54.00;15.75;;;10.40;99.90;;;;;;5126614;27;20241;-80
2022/10/14 06:30:02;;;;;;;33.40;15.07;;;10.40;99.90;;;;;;5123319;27;20031;-80
2022/10/14 06:32:28;;;;;;;34.38;16.85;;;10.40;99.90;;;;;;5126261;27;20119;-82
2022/10/14 06:34:53;;;;;;;63.22;18.40;;;10.30;99.90;;;;;;5100354;28;20452;-82
2022/10/14 06:37:19;;;;;;;47.58;18.90;;;11.60;99.90;;;;;;5125093;27;20054;-79
2022/10/14 06:39:45;;;;;;;56.85;19.35;;;10.50;99.90;;;;;;5127745;27;20118;-83
2022/10/14 06:42:10;;;;;;;51.58;17.67;;;11.90;99.90;;;;;;5116883;27;20038;-84
2022/10/14 06:44:36;;;;;;;37.42;18.17;;;10.40;99.90;;;;;;5102981;27;20421;-84
2022/10/14 06:47:01;;;;;;;41.95;19.45;;;10.50;99.90;;;;;;5125012;27;20043;-84
2022/10/14 06:49:27;;;;;;;45.53;19.10;;;10.40;99.90;;;;;;5126785;27;20120;-78
2022/10/14 06:51:53;;;;;;;47.95;21.15;;;12.00;99.90;;;;;;5129152;27;20062;-78
2022/10/14 06:54:18;;;;;;;51.47;20.10;;;10.50;99.90;;;;;;5113116;27;20039;-78
2022/10/14 06:56:44;;;;;;;39.20;20.20;;;10.50;99.90;;;;;;5126969;27;20203;-78
2022/10/14 06:59:09;;;;;;;44.38;21.30;;;12.20;99.90;;;;;;5127663;27;20371;-78
2022/10/14 07:01:35;;;;;;;47.75;20.65;;;12.20;99.90;;;;;;5122171;27;20039;-78
2022/10/14 07:04:02;;;;;;;55.58;18.85;;;10.50;99.90;;;;;;5111293;27;20039;-77
2022/10/14 07:06:28;;;;;;;37.70;19.63;;;10.50;99.90;;;;;;5104636;28;20359;-79
2022/10/14 07:08:54;;;;;;;38.40;19.27;;;12.60;99.90;;;;;;5115986;28;20065;-81
2022/10/14 07:11:19;;;;;;;55.20;22.20;;;10.60;99.90;;;;;;5102175;28;20337;-81
2022/10/14 07:13:45;;;;;;;66.90;23.08;;;10.50;99.90;;;;;;5125957;28;20039;-78
2022/10/14 07:16:11;;;;;;;49.22;21.33;;;10.60;99.90;;;;;;5101753;28;20038;-78
2022/10/14 07:18:36;;;;;;;45.60;20.23;;;12.40;99.90;;;;;;5129042;27;20085;-78
2022/10/14 07:21:06;;;;;;;51.65;22.40;;;10.70;99.90;;;;;;5093674;28;20039;-79
2022/10/14 07:23:32;;;;;;;40.92;21.42;;;10.60;99.90;;;;;;5124171;27;20047;-80
2022/10/14 07:25:59;;;;;;;51.25;22.98;;;10.70;99.90;;;;;;5129253;27;20031;-78
2022/10/14 07:28:25;;;;;;;56.22;24.05;;;10.70;99.90;;;;;;5100931;27;20078;-81
2022/10/14 07:30:57;;;;;;;50.05;21.67;;;12.10;99.90;;;;;;5130363;27;20046;-78
2022/10/14 07:33:23;;;;;;;57.78;24.52;;;10.80;99.90;;;;;;5126299;27;20049;-77
2022/10/14 07:35:52;;;;;;;53.28;21.95;;;10.80;99.90;;;;;;5100508;28;20042;-77
2022/10/14 07:38:18;;;;;;;44.22;21.42;;;10.80;99.90;;;;;;5144774;27;20027;-81
2022/10/14 07:40:43;;;;;;;53.65;23.40;;;10.90;99.90;;;;;;5145300;27;20709;-81
2022/10/14 07:43:09;;;;;;;45.05;21.80;;;10.90;99.90;;;;;;5122144;27;20049;-80
2022/10/14 07:45:39;;;;;;;49.00;21.88;;;10.90;99.90;;;;;;5147713;27;20043;-77
2022/10/14 07:48:05;;;;;;;50.80;23.20;;;10.90;99.90;;;;;;5149227;27;20478;-79
2022/10/14 07:50:31;;;;;;;50.83;22.10;;;12.60;99.90;;;;;;5124654;27;20049;-78
2022/10/14 07:52:56;;;;;;;52.08;24.10;;;10.90;99.90;;;;;;5099229;28;20126;-77
2022/10/14 07:55:22;;;;;;;52.50;23.63;;;12.50;99.90;;;;;;5145842;27;20050;-78
2022/10/14 07:57:48;;;;;;;46.40;22.75;;;10.90;99.90;;;;;;5126816;27;20395;-80
2022/10/14 08:00:13;;;;;;;52.05;22.83;;;11.00;99.90;;;;;;5148865;27;20035;-79
2022/10/14 08:02:39;;;;;;;51.80;22.90;;;11.00;99.90;;;;;;5125872;27;20049;-82
2022/10/14 08:05:05;;;;;;;44.97;21.88;;;11.00;99.90;;;;;;5130358;27;20514;-83
2022/10/14 08:07:32;;;;;;;46.90;22.58;;;11.00;99.90;;;;;;5125413;27;20327;-82
2022/10/14 08:09:57;;;;;;;46.22;22.42;;;11.10;99.90;;;;;;5129330;27;20045;-79
2022/10/14 08:12:23;;;;;;;46.00;22.00;;;11.10;99.90;;;;;;5100172;28;20038;-78
2022/10/14 08:14:49;;;;;;;49.08;22.85;;;11.10;99.90;;;;;;5104641;27;20517;-82
2022/10/14 08:17:14;;;;;;;51.03;23.95;;;12.30;99.90;;;;;;5148591;27;20086;-77
2022/10/14 08:19:40;;;;;;;51.80;25.52;;;11.10;99.90;;;;;;5106269;27;20165;-78
2022/10/14 08:22:06;;;;;;;51.05;24.35;;;11.20;99.90;;;;;;5113955;27;20070;-80
2022/10/14 08:24:31;;;;;;;47.70;24.10;;;12.60;99.90;;;;;;5132422;27;20035;-77
2022/10/14 08:26:59;;;;;;;50.40;24.92;;;11.00;99.90;;;;;;5124859;27;20527;-79
2022/10/14 08:29:25;;;;;;;49.95;25.83;;;11.20;99.90;;;;;;5107567;27;20078;-78
2022/10/14 08:31:53;;;;;;;44.58;24.42;;;12.80;99.90;;;;;;5143427;27;20397;-78
2022/10/14 08:34:20;;;;;;;46.28;24.85;;;11.20;99.90;;;;;;5126710;27;20045;-78
2022/10/14 08:36:47;;;;;;;49.78;26.63;;;11.20;99.90;;;;;;5110361;27;20051;-82
2022/10/14 08:39:15;;;;;;;49.03;25.00;;;12.80;99.90;;;;;;5119577;27;20039;-85
2022/10/14 08:41:49;;;;;;;52.92;26.23;;;11.20;99.90;;;;;;5122851;27;20074;-78
2022/10/14 08:44:50;;;;;;;48.95;25.80;;;11.30;99.90;;;;;;5101923;27;20043;-83
2022/10/14 08:47:22;;;;;;;53.17;26.83;;;11.30;99.90;;;;;;5104157;27;20049;-80
2022/10/14 08:50:08;;;;;;;63.28;29.25;;;11.30;99.90;;;;;;5113322;27;20031;-85
2022/10/14 08:52:38;;;;;;;50.80;27.00;;;11.40;99.90;;;;;;5121709;27;20086;-83
2022/10/14 08:55:29;;;;;;;58.35;28.20;;;11.40;99.90;;;;;;5139156;27;20039;-81
2022/10/14 08:58:17;;;;;;;52.85;26.98;;;11.40;99.90;;;;;;5127658;27;20047;-78
2022/10/14 09:00:46;;;;;;;54.85;28.35;;;11.40;99.90;;;;;;5140700;27;20651;-81
2022/10/14 09:03:31;;;;;;;50.85;28.33;;;10.50;99.90;;;;;;5100716;27;20549;-80
2022/10/14 09:06:02;;;;;;;54.58;28.88;;;11.50;99.90;;;;;;5116656;27;20393;-80
2022/10/14 09:09:10;;;;;;;49.38;27.88;;;11.20;99.90;;;;;;5115335;27;20383;-78
2022/10/14 09:11:48;;;;;;;42.90;25.33;;;11.50;99.90;;;;;;5113327;27;20498;-78
2022/10/14 09:14:21;;;;;;;41.97;25.70;;;12.10;99.90;;;;;;5104494;27;20035;-80
2022/10/14 09:16:54;;;;;;;52.83;28.10;;;13.10;99.90;;;;;;5098145;27;20054;-82
2022/10/14 09:19:40;;;;;;;53.92;28.30;;;10.30;99.90;;;;;;5101040;27;20064;-78
2022/10/14 09:22:13;;;;;;;53.45;27.55;;;13.20;99.90;;;;;;5110582;27;20380;-78
2022/10/14 09:24:40;;;;;;;54.25;28.98;;;11.60;99.90;;;;;;5105106;27;20434;-78
2022/10/14 09:27:13;;;;;;;50.75;27.73;;;12.50;99.90;;;;;;5123656;27;20057;-81
2022/10/14 09:29:47;;;;;;;47.42;28.27;;;11.60;99.90;;;;;;5141003;27;20039;-81
2022/10/14 09:32:45;;;;;;;53.15;30.27;;;11.90;99.90;;;;;;5107774;27;20080;-81
2022/10/14 09:35:28;;;;;;;50.45;28.67;;;11.80;99.90;;;;;;5111694;27;20510;-79
2022/10/14 09:37:54;;;;;;;44.67;26.55;;;12.20;99.90;;;;;;5128923;27;20047;-79
2022/10/14 09:40:28;;;;;;;53.65;29.80;;;11.80;99.90;;;;;;5101473;27;20451;-81
2022/10/14 09:43:09;;;;;;;59.40;31.52;;;11.80;99.90;;;;;;5113737;27;20038;-77
2022/10/14 09:46:00;;;;;;;67.43;31.42;;;11.90;99.90;;;;;;5132012;27;20103;-81
2022/10/14 09:48:38;;;;;;;54.92;31.15;;;11.90;99.90;;;;;;5098895;27;20047;-78
2022/10/14 09:51:22;;;;;;;51.03;28.20;;;11.90;99.90;;;;;;5149757;27;20298;-79
2022/10/14 09:53:56;;;;;;;52.45;29.05;;;12.00;99.90;;;;;;5145088;27;20046;-78
2022/10/14 09:56:36;;;;;;;;;;;12.00;99.90;;;;;;5120738;27;20027;-79
2022/10/14 09:59:03;;;;;;;48.58;27.92;;;12.00;99.90;;;;;;5128673;27;20051;-79
2022/10/14 10:01:39;;;;;;;52.05;28.08;;;12.20;99.90;;;;;;5114566;27;20043;-78
2022/10/14 10:04:26;;;;;;;53.38;29.67;;;12.00;99.90;;;;;;5140035;27;20079;-78
2022/10/14 10:06:53;;;;;;;50.05;27.77;;;12.00;99.90;;;;;;5130830;27;20133;-80
2022/10/14 10:09:19;;;;;;;45.10;26.35;;;13.20;99.90;;;;;;5126874;27;20146;-78
2022/10/14 10:11:45;;;;;;;51.40;28.45;;;13.40;99.90;;;;;;5129919;27;20470;-79
2022/10/14 10:14:25;;;;;;;50.22;29.35;;;12.10;99.90;;;;;;5102187;27;20049;-80
2022/10/14 10:17:16;;;;;;;48.85;28.58;;;12.20;99.90;;;;;;5104415;27;20050;-79
2022/10/14 10:19:45;;;;;;;47.03;26.70;;;12.90;99.90;;;;;;5103249;27;20046;-81
2022/10/14 10:22:23;;;;;;;45.60;25.38;;;12.20;99.90;;;;;;5129762;27;20069;-80
2022/10/14 10:25:12;;;;;;;46.53;26.10;;;12.20;99.90;;;;;;5097990;27;20046;-83
2022/10/14 10:27:44;;;;;;;47.33;25.50;;;12.20;99.90;;;;;;5106550;27;20043;-83
2022/10/14 10:30:27;;;;;;;39.55;22.60;;;12.20;99.90;;;;;;5114041;27;20150;-83
2022/10/14 10:33:23;;;;;;;39.70;23.60;;;12.30;99.90;;;;;;5104314;27;20047;-77
2022/10/14 10:36:05;;;;;;;36.20;20.55;;;12.30;99.90;;;;;;5131365;27;20102;-77
2022/10/14 10:38:44;;;;;;;37.58;21.15;;;12.70;99.90;;;;;;5103691;27;20379;-80
2022/10/14 10:41:23;;;;;;;35.88;20.20;;;12.30;99.90;;;;;;5139752;27;20046;-82
2022/10/14 10:44:05;;;;;;;32.20;19.35;;;12.30;99.90;;;;;;5145995;27;20047;-86
2022/10/14 10:47:05;;;;;;;32.40;19.25;;;12.40;99.90;;;;;;5118088;27;20453;-84
2022/10/14 10:49:53;;;;;;;25.90;16.80;;;12.40;99.90;;;;;;5132061;27;20047;-87
2022/10/14 10:52:27;;;;;;;26.13;16.10;;;12.50;99.90;;;;;;5143550;27;20275;-89
2022/10/14 10:55:05;;;;;;;27.10;15.95;;;13.60;99.90;;;;;;5129958;27;20038;-86
2022/10/14 10:58:07;;;;;;;25.23;15.27;;;12.50;99.90;;;;;;5150378;27;20505;-78
2022/10/14 11:00:43;;;;;;;24.73;13.25;;;12.50;99.90;;;;;;5139808;27;20050;-80
2022/10/14 11:03:53;;;;;;;24.55;14.05;;;12.40;99.90;;;;;;5147169;27;20035;-79
2022/10/14 11:12:32;;;;;;;22.80;13.68;;;12.50;99.90;;;;;;5116506;27;20042;-82
2022/10/14 11:15:14;;;;;;;20.67;11.77;;;12.60;99.90;;;;;;5130058;27;20053;-78
2022/10/14 11:17:51;;;;;;;21.83;12.85;;;12.60;99.90;;;;;;5101522;28;20394;-78
2022/10/14 11:20:26;;;;;;;21.42;13.05;;;12.60;99.90;;;;;;5133467;27;20034;-78
2022/10/14 11:23:23;;;;;;;17.48;10.93;;;12.60;99.90;;;;;;5095512;27;20479;-81
2022/10/14 11:25:59;;;;;;;16.98;10.35;;;13.60;99.90;;;;;;5123212;27;20043;-78
2022/10/14 11:28:35;;;;;;;20.90;11.40;;;12.70;99.90;;;;;;5096041;28;20051;-77
2022/10/14 11:31:30;;;;;;;16.00;10.32;;;12.70;99.90;;;;;;5121055;28;20498;-77
2022/10/14 11:34:10;;;;;;;20.90;11.25;;;12.70;99.90;;;;;;5117206;28;20047;-78
2022/10/14 11:37:14;;;;;;;17.63;10.50;;;12.80;99.90;;;;;;5107845;28;20071;-77
2022/10/14 11:39:49;;;;;;;16.67;10.00;;;12.80;99.90;;;;;;5116713;28;20315;-79
2022/10/14 11:42:32;;;;;;;19.38;10.35;;;12.90;99.90;;;;;;5119284;28;20043;-79
2022/10/14 11:45:18;;;;;;;15.60;9.60;;;12.90;99.90;;;;;;5110361;28;20047;-78
2022/10/14 11:47:47;;;;;;;14.98;9.45;;;13.00;99.90;;;;;;5083518;28;20063;-78
2022/10/14 11:50:25;;;;;;;13.00;8.77;;;14.50;99.90;;;;;;5126278;27;20444;-78
2022/10/14 11:53:01;;;;;;;15.10;9.18;;;13.90;99.90;;;;;;5119558;28;20394;-79
2022/10/14 11:55:33;;;;;;;15.13;9.45;;;12.90;99.90;;;;;;5094638;28;20093;-78
2022/10/14 11:58:13;;;;;;;15.52;9.02;;;12.90;99.90;;;;;;5130424;27;20138;-78
2022/10/14 12:00:42;;;;;;;15.77;9.40;;;12.90;99.90;;;;;;5119479;27;20040;-77
2022/10/14 12:03:11;;;;;;;15.00;9.98;;;13.00;99.90;;;;;;5125093;27;20100;-77
2022/10/14 12:05:58;;;;;;;11.75;8.25;;;13.90;99.90;;;;;;5110707;28;20394;-77
2022/10/14 12:08:35;;;;;;;13.82;8.60;;;12.90;99.90;;;;;;5116662;27;20103;-78
2022/10/14 12:11:33;;;;;;;15.63;10.02;;;13.00;99.90;;;;;;5121899;27;20093;-80
2022/10/14 12:14:18;;;;;;;14.85;8.80;;;13.80;99.90;;;;;;5109972;27;20066;-78
2022/10/14 12:16:47;;;;;;;12.95;8.18;;;13.00;99.90;;;;;;5109865;28;20100;-80
2022/10/14 12:19:20;;;;;;;13.27;8.65;;;13.00;99.90;;;;;;5113077;27;20042;-78
2022/10/14 12:22:04;;;;;;;13.93;8.18;;;14.20;99.90;;;;;;5120752;27;20115;-78
2022/10/14 12:24:38;;;;;;;12.63;8.13;;;13.00;99.90;;;;;;5118501;27;20054;-80
2022/10/14 12:27:09;;;;;;;13.00;8.50;;;13.00;99.90;;;;;;5103221;27;20051;-79
2022/10/14 12:29:39;;;;;;;12.95;8.10;;;12.90;99.90;;;;;;5118766;27;20313;-83
2022/10/14 12:32:07;;;;;;;11.60;7.78;;;14.60;99.90;;;;;;5124501;27;20047;-79
2022/10/14 12:34:39;;;;;;;11.13;7.85;;;14.30;99.90;;;;;;5093662;28;20031;-83
2022/10/14 12:37:23;;;;;;;14.98;8.85;;;13.00;99.90;;;;;;5126165;27;20035;-81
2022/10/14 12:40:12;;;;;;;11.65;7.57;;;12.50;99.90;;;;;;5094472;28;20542;-82
2022/10/14 12:42:56;;;;;;;12.93;9.10;;;13.20;99.90;;;;;;5100565;27;20074;-88
2022/10/14 12:45:25;;;;;;;11.55;7.82;;;13.00;99.90;;;;;;5122494;27;20039;-84
2022/10/14 12:48:25;;;;;;;14.60;8.82;;;14.40;99.90;;;;;;5116573;27;20059;-83
2022/10/14 12:51:15;;;;;;;13.45;8.75;;;13.00;99.90;;;;;;5096703;27;20055;-88
2022/10/14 12:54:12;;;;;;;17.27;9.85;;;13.00;99.90;;;;;;5111252;28;20335;-88
2022/10/14 12:56:53;;;;;;;13.23;8.98;;;13.00;99.90;;;;;;5118839;27;20031;-87
2022/10/14 12:59:35;;;;;;;15.23;9.93;;;13.00;99.90;;;;;;5104434;27;20053;-83
2022/10/14 13:02:25;;;;;;;13.18;9.43;;;13.00;99.90;;;;;;5099824;27;20063;-82